Time;durP1;ratioP1;P1;durP2;ratioP2;P2;SDS_P1;SDS_P2;PMS_P1;PMS_P2;Temp;Humidity;BMP_temperature;BMP_pressure;BME280_temperature;BME280_humidity;BME280_pressure;Samples;Min_cycle;Max_cycle;Signal;HPM_P1;HPM_P2
2022/08/09 00:00:28;;;;;;;;;;;;;;;26.35;58.67;154283.77;1673327;84;20467;-73
2022/08/09 00:02:54;;;;;;;;;;;;;;;26.34;58.54;154281.16;1672098;85;21026;-73
2022/08/09 00:05:21;;;;;;;;;;;;;;;26.36;58.38;154286.39;1661925;86;20202;-73
2022/08/09 00:07:48;;;;;;;;;;;;;;;26.37;58.24;154289.02;1647672;86;20478;-73
2022/08/09 00:10:15;;;;;;;;;;;;;;;26.34;58.44;154281.16;1643515;86;20472;-73
2022/08/09 00:12:41;;;;;;;;;;;;;;;26.32;58.67;154277.25;1678964;85;20313;-73
2022/08/09 00:15:09;;;;;;;;;;;;;;;26.36;58.81;154286.39;1678386;85;21256;-59
2022/08/09 00:17:36;;;;;;;;;;;;;;;26.40;58.84;154296.88;1677794;85;20175;-60
2022/08/09 00:20:04;;;;;;;;;;;;;;;26.32;58.97;154277.25;1666225;84;20180;-60
2022/08/09 00:22:31;;;;;;;;;;;;;;;26.21;59.53;154248.38;1666852;84;20467;-59
2022/08/09 00:24:58;;;;;;;;;;;;;;;26.10;60.02;154222.14;1666695;84;20171;-59
2022/08/09 00:27:24;;;;;;;;;;;;;;;25.97;60.52;154189.33;1666593;85;21129;-59
2022/08/09 00:29:51;;;;;;;;;;;;;;;25.91;61.04;154173.61;1666709;86;20214;-60
2022/08/09 00:32:18;;;;;;;;;;;;;;;25.90;61.28;154171.00;1666639;86;20208;-59
2022/08/09 00:34:45;;;;;;;;;;;;;;;25.87;61.47;154164.47;1666566;86;20812;-59
2022/08/09 00:37:12;;;;;;;;;;;;;;;25.87;61.41;154163.14;1666719;84;20188;-59
2022/08/09 00:39:40;;;;;;;;;;;;;;;25.86;61.35;154160.52;1666539;84;21137;-58
2022/08/09 00:42:07;;;;;;;;;;;;;;;25.78;61.73;154139.56;1666592;86;20184;-58
2022/08/09 00:44:33;;;;;;;;;;;;;;;25.72;62.10;154126.42;1666683;84;20587;-59
2022/08/09 00:47:00;;;;;;;;;;;;;;;25.70;62.55;154119.91;1666390;85;20489;-58
2022/08/09 00:49:27;;;;;;;;;;;;;;;25.67;62.81;154113.33;1666366;85;20175;-58
2022/08/09 00:51:55;;;;;;;;;;;;;;;25.65;62.96;154108.09;1666595;85;22106;-59
2022/08/09 00:54:23;;;;;;;;;;;;;;;25.62;63.27;154100.23;1666271;86;20191;-58
2022/08/09 00:56:49;;;;;;;;;;;;;;;25.64;63.49;154104.14;1666583;84;20212;-58
2022/08/09 00:59:16;;;;;;;;;;;;;;;25.58;63.74;154091.05;1666524;86;20204;-59
2022/08/09 01:01:43;;;;;;;;;;;;;;;25.55;64.05;154083.19;1666504;85;20179;-58
2022/08/09 01:04:29;;;;;;;;;;;;;;;25.55;64.16;154083.19;1666665;86;21314;-59
2022/08/09 01:07:05;;;;;;;;;;;;;;;25.56;64.33;154085.81;1626001;86;20149;-59
2022/08/09 01:09:55;;;;;;;;;;;;;;;25.58;64.46;154089.77;1625983;88;20178;-58
2022/08/09 01:12:29;;;;;;;;;;;;;;;25.63;64.44;154101.52;1672333;85;21394;-59
2022/08/09 01:15:02;;;;;;;;;;;;;;;25.65;64.39;154106.81;1685652;83;20459;-60
2022/08/09 01:17:31;;;;;;;;;;;;;;;25.62;64.55;154098.91;1682635;83;21144;-59
2022/08/09 01:20:00;;;;;;;;;;;;;;;25.51;65.01;154071.37;1626045;86;20233;-60
2022/08/09 01:22:51;;;;;;;;;;;;;;;25.45;65.42;154056.95;1575279;90;20471;-58
2022/08/09 01:25:28;;;;;;;;;;;;;;;25.43;65.58;154053.00;1594633;90;20145;-59
2022/08/09 01:27:55;;;;;;;;;;;;;;;25.36;65.81;154033.34;1566105;91;20249;-59
2022/08/09 01:30:23;;;;;;;;;;;;;;;25.29;66.15;154017.64;1601971;88;21230;-59
2022/08/09 01:32:50;;;;;;;;;;;;;;;25.23;66.52;154000.59;1596953;89;20244;-59
2022/08/09 01:35:29;;;;;;;;;;;;;;;25.18;66.89;153990.13;1629997;88;20222;-59
2022/08/09 01:37:59;;;;;;;;;;;;;;;25.14;67.14;153979.66;1630258;87;20226;-59
2022/08/09 01:40:26;;;;;;;;;;;;;;;25.11;67.48;153971.80;1630194;87;20458;-59
2022/08/09 01:42:53;;;;;;;;;;;;;;;25.07;67.70;153961.28;1630101;88;20702;-59
2022/08/09 01:45:19;;;;;;;;;;;;;;;25.10;67.72;153969.17;1607707;87;20206;-59
2022/08/09 01:47:46;;;;;;;;;;;;;;;25.08;67.85;153963.89;1635315;86;20150;-60
2022/08/09 01:50:13;;;;;;;;;;;;;;;25.07;68.12;153961.28;1635136;87;20209;-59
2022/08/09 01:52:40;;;;;;;;;;;;;;;25.08;68.31;153963.89;1635115;86;20434;-59
2022/08/09 01:55:07;;;;;;;;;;;;;;;25.07;68.35;153961.28;1635192;87;21890;-59
2022/08/09 01:57:36;;;;;;;;;;;;;;;25.09;68.49;153966.56;1635410;86;20180;-58
2022/08/09 02:00:05;;;;;;;;;;;;;;;25.14;68.27;153978.31;1635615;87;20205;-59
2022/08/09 02:02:37;;;;;;;;;;;;;;;25.13;68.38;153977.03;1635927;86;20459;-59
2022/08/09 02:05:06;;;;;;;;;;;;;;;25.12;68.53;153973.08;1661349;84;20512;-57
2022/08/09 02:07:34;;;;;;;;;;;;;;;25.12;68.74;153974.41;1674350;85;21211;-58
2022/08/09 02:10:03;;;;;;;;;;;;;;;25.11;68.64;153971.80;1656452;85;20153;-58
2022/08/09 02:12:31;;;;;;;;;;;;;;;25.06;68.87;153957.38;1674842;85;20478;-58
2022/08/09 02:14:58;;;;;;;;;;;;;;;25.05;69.03;153956.03;1678575;84;20175;-58
2022/08/09 02:17:26;;;;;;;;;;;;;;;25.02;69.25;153948.19;1678084;85;20215;-58
2022/08/09 02:19:53;;;;;;;;;;;;;;;24.99;69.47;153940.33;1688159;84;21854;-59
2022/08/09 02:22:36;;;;;;;;;;;;;;;24.97;69.67;153935.09;1687960;85;20187;-59
2022/08/09 02:25:06;;;;;;;;;;;;;;;24.95;69.70;153929.86;1688056;85;20480;-58
2022/08/09 02:27:32;;;;;;;;;;;;;;;24.92;70.14;153922.02;1688000;85;20215;-59
2022/08/09 02:29:59;;;;;;;;;;;;;;;24.93;70.16;153925.91;1711696;83;20403;-59
2022/08/09 02:32:26;;;;;;;;;;;;;;;24.91;70.27;153920.67;1688362;85;21112;-59
2022/08/09 02:34:56;;;;;;;;;;;;;;;24.89;70.55;153916.78;1688067;84;20207;-58
2022/08/09 02:37:24;;;;;;;;;;;;;;;24.88;70.87;153912.83;1687959;85;20182;-59
2022/08/09 02:40:00;;;;;;;;;;;;;;;24.89;70.77;153916.78;1688152;83;20870;-59
2022/08/09 02:42:36;;;;;;;;;;;;;;;24.87;71.13;153911.53;1686931;83;20218;-58
2022/08/09 02:45:15;;;;;;;;;;;;;;;24.94;71.10;153927.25;1688694;85;21224;-59
2022/08/09 02:47:42;;;;;;;;;;;;;;;24.89;71.17;153915.44;1687972;85;20321;-59
2022/08/09 02:50:12;;;;;;;;;;;;;;;24.83;71.59;153901.03;1711855;83;20211;-59
2022/08/09 02:52:41;;;;;;;;;;;;;;;24.80;71.71;153891.89;1688293;83;20619;-58
2022/08/09 02:55:09;;;;;;;;;;;;;;;24.74;72.00;153877.42;1688182;85;20192;-59
2022/08/09 02:57:36;;;;;;;;;;;;;;;24.72;72.32;153872.19;1688320;85;21156;-59
2022/08/09 03:00:07;;;;;;;;;;;;;;;24.75;72.45;153880.09;1688228;84;20565;-59
2022/08/09 03:02:33;;;;;;;;;;;;;;;24.76;72.54;153882.70;1688340;83;20215;-59
2022/08/09 03:05:00;;;;;;;;;;;;;;;24.75;72.87;153880.09;1675700;85;20239;-59
2022/08/09 03:07:27;;;;;;;;;;;;;;;24.78;72.98;153886.66;1641392;87;20128;-59
2022/08/09 03:09:53;;;;;;;;;;;;;;;24.75;73.28;153880.09;1631919;87;20585;-59
2022/08/09 03:12:21;;;;;;;;;;;;;;;24.74;73.39;153877.42;1635843;86;20609;-59
2022/08/09 03:14:48;;;;;;;;;;;;;;;24.73;73.71;153874.80;1619605;87;20133;-59
2022/08/09 03:17:15;;;;;;;;;;;;;;;24.70;73.84;153866.95;1618951;87;20889;-59
2022/08/09 03:19:42;;;;;;;;;;;;;;;24.66;74.08;153857.77;1624566;87;20196;-59
2022/08/09 03:22:09;;;;;;;;;;;;;;;24.63;74.44;153849.91;1625309;88;22194;-59
2022/08/09 03:24:35;;;;;;;;;;;;;;;24.60;74.72;153842.06;1625408;88;20168;-59
2022/08/09 03:27:04;;;;;;;;;;;;;;;24.57;75.06;153835.48;1625516;87;20216;-60
2022/08/09 03:29:30;;;;;;;;;;;;;;;24.52;75.17;153822.41;1625650;88;20448;-59
2022/08/09 03:31:58;;;;;;;;;;;;;;;24.51;75.39;153819.78;1625469;87;20188;-59
2022/08/09 03:34:25;;;;;;;;;;;;;;;24.52;75.48;153822.41;1625520;87;21316;-59
2022/08/09 03:36:52;;;;;;;;;;;;;;;24.53;75.36;153823.69;1625803;88;20447;-59
2022/08/09 03:39:18;;;;;;;;;;;;;;;24.49;75.47;153813.22;1605042;88;20589;-60
2022/08/09 03:41:45;;;;;;;;;;;;;;;24.52;75.61;153822.41;1625562;87;20553;-59
2022/08/09 03:44:12;;;;;;;;;;;;;;;24.55;75.46;153830.25;1625311;88;20300;-59
2022/08/09 03:46:39;;;;;;;;;;;;;;;24.57;75.44;153835.48;1625515;87;21098;-59
2022/08/09 03:49:05;;;;;;;;;;;;;;;24.58;75.41;153838.11;1625394;88;20184;-59
2022/08/09 03:51:32;;;;;;;;;;;;;;;24.64;75.41;153851.19;1625405;88;20248;-59
2022/08/09 03:53:59;;;;;;;;;;;;;;;24.70;75.27;153866.95;1625541;88;20465;-59
2022/08/09 03:56:26;;;;;;;;;;;;;;;24.78;75.08;153887.94;1625370;87;20183;-58
2022/08/09 03:58:53;;;;;;;;;;;;;;;24.86;74.86;153908.88;1625386;87;22205;-59
2022/08/09 04:01:19;;;;;;;;;;;;;;;24.98;74.59;153939.05;1625352;87;20219;-58
2022/08/09 04:03:46;;;;;;;;;;;;;;;25.13;74.08;153977.03;1626998;87;20144;-58
2022/08/09 04:06:13;;;;;;;;;;;;;;;25.27;73.36;154011.06;1637808;87;20333;-59
2022/08/09 04:08:40;;;;;;;;;;;;;;;25.34;73.16;154029.44;1634039;87;20305;-59
2022/08/09 04:11:07;;;;;;;;;;;;;;;25.44;72.75;154055.62;1638121;86;22051;-58
2022/08/09 04:13:34;;;;;;;;;;;;;;;25.51;72.59;154071.37;1647652;87;20174;-59
2022/08/09 04:16:01;;;;;;;;;;;;;;;25.58;72.28;154089.77;1646388;87;20207;-59
2022/08/09 04:18:28;;;;;;;;;;;;;;;25.63;72.08;154102.86;1627319;87;20232;-59
2022/08/09 04:20:54;;;;;;;;;;;;;;;25.71;71.86;154123.81;1623633;88;20500;-59
2022/08/09 04:23:22;;;;;;;;;;;;;;;25.79;71.64;154142.19;1623199;87;20849;-60
2022/08/09 04:25:49;;;;;;;;;;;;;;;25.93;71.20;154177.56;1623215;88;20468;-60
2022/08/09 04:28:15;;;;;;;;;;;;;;;26.08;70.37;154215.56;1623072;88;20240;-59
2022/08/09 04:30:42;;;;;;;;;;;;;;;26.24;69.64;154256.25;1623279;88;20542;-59
2022/08/09 04:33:08;;;;;;;;;;;;;;;26.39;69.20;154294.25;1623273;88;20252;-58
2022/08/09 04:35:38;;;;;;;;;;;;;;;26.54;68.87;154332.31;1623346;88;21838;-58
2022/08/09 04:38:04;;;;;;;;;;;;;;;26.76;67.93;154387.39;1623508;88;20163;-59
2022/08/09 04:40:49;;;;;;;;;;;;;;;26.86;67.30;154414.97;1623194;87;20247;-58
2022/08/09 04:43:16;;;;;;;;;;;;;;;26.96;66.56;154439.84;1623131;86;20228;-59
2022/08/09 04:45:43;;;;;;;;;;;;;;;26.98;65.95;154443.80;1623111;88;20521;-59
2022/08/09 04:48:09;;;;;;;;;;;;;;;26.98;65.54;154443.80;1623503;88;21094;-59
2022/08/09 04:50:36;;;;;;;;;;;;;;;27.04;65.07;154459.52;1622944;87;20227;-59
2022/08/09 04:53:06;;;;;;;;;;;;;;;27.12;64.85;154480.53;1623257;88;20464;-60
2022/08/09 04:55:33;;;;;;;;;;;;;;;27.27;64.37;154518.56;1623125;88;20520;-58
2022/08/09 04:57:59;;;;;;;;;;;;;;;27.40;63.80;154550.02;1622846;88;20191;-58
2022/08/09 05:00:26;;;;;;;;;;;;;;;27.45;63.68;154564.47;1622890;87;21234;-58
2022/08/09 05:02:52;;;;;;;;;;;;;;;27.52;63.07;154580.23;1623028;88;20177;-58
2022/08/09 05:05:20;;;;;;;;;;;;;;;27.53;63.29;154582.91;1615822;88;20203;-59
2022/08/09 05:07:47;;;;;;;;;;;;;;;27.49;63.61;154573.66;1604160;87;20147;-58
2022/08/09 05:10:13;;;;;;;;;;;;;;;27.42;63.60;154555.31;1649366;86;20181;-59
2022/08/09 05:12:41;;;;;;;;;;;;;;;27.28;64.04;154519.86;1677020;85;23117;-58
2022/08/09 05:15:08;;;;;;;;;;;;;;;27.20;64.61;154498.88;1680096;85;20183;-59
2022/08/09 05:17:36;;;;;;;;;;;;;;;27.14;65.14;154484.44;1680265;85;20249;-59
2022/08/09 05:20:04;;;;;;;;;;;;;;;27.09;65.32;154472.67;1682184;85;20209;-58
2022/08/09 05:22:31;;;;;;;;;;;;;;;26.99;65.11;154447.75;1682701;84;20219;-58
2022/08/09 05:24:58;;;;;;;;;;;;;;;26.93;65.13;154430.70;1682446;85;22498;-58
2022/08/09 05:27:25;;;;;;;;;;;;;;;26.97;65.29;154441.19;1682218;85;20183;-59
2022/08/09 05:29:51;;;;;;;;;;;;;;;27.06;64.78;154463.47;1682572;85;20195;-59
2022/08/09 05:32:18;;;;;;;;;;;;;;;27.02;64.66;154454.28;1682495;85;20483;-59
2022/08/09 05:34:45;;;;;;;;;;;;;;;26.98;64.49;154445.14;1682306;85;20127;-59
2022/08/09 05:37:12;;;;;;;;;;;;;;;26.96;64.74;154438.56;1682580;85;22018;-59
2022/08/09 05:39:39;;;;;;;;;;;;;;;26.98;65.09;154443.80;1682062;85;20582;-59
2022/08/09 05:42:06;;;;;;;;;;;;;;;27.06;65.06;154464.77;1682308;85;20194;-59
2022/08/09 05:44:33;;;;;;;;;;;;;;;27.17;64.20;154493.64;1660938;84;20550;-59
2022/08/09 05:47:00;;;;;;;;;;;;;;;27.29;64.16;154522.47;1654915;85;20361;-59
2022/08/09 05:49:26;;;;;;;;;;;;;;;27.48;63.43;154569.70;1653126;86;21223;-60
2022/08/09 05:51:53;;;;;;;;;;;;;;;27.70;62.78;154627.47;1654173;84;20138;-60
2022/08/09 05:54:20;;;;;;;;;;;;;;;27.79;62.19;154648.50;1653744;86;20461;-77
2022/08/09 05:56:46;;;;;;;;;;;;;;;27.80;61.89;154651.13;1654224;86;20451;-78
2022/08/09 05:59:16;;;;;;;;;;;;;;;27.87;61.37;154669.47;1652246;86;20174;-77
2022/08/09 06:01:43;;;;;;;;;;;;;;;28.02;61.10;154708.84;1653274;86;21283;-77
2022/08/09 06:04:09;;;;;;;;;;;;;;;28.23;59.72;154761.39;1649395;86;20201;-76
2022/08/09 06:06:36;;;;;;;;;;;;;;;28.44;59.70;154813.89;1644800;87;20418;-78
2022/08/09 06:09:03;;;;;;;;;;;;;;;28.62;58.82;154858.48;1623822;86;20457;-77
2022/08/09 06:11:30;;;;;;;;;;;;;;;28.78;57.34;154899.22;1623353;86;20265;-77
2022/08/09 06:13:57;;;;;;;;;;;;;;;28.93;57.60;154937.33;1625308;85;21738;-75
2022/08/09 06:16:24;;;;;;;;;;;;;;;29.13;57.55;154989.84;1633761;86;20661;-59
2022/08/09 06:18:51;;;;;;;;;;;;;;;29.36;58.64;155046.28;1630585;86;20120;-58
2022/08/09 06:21:17;;;;;;;;;;;;;;;29.50;59.09;155081.78;1625080;86;20188;-58
2022/08/09 06:23:46;;;;;;;;;;;;;;;29.56;58.53;155097.58;1623195;86;20192;-59
2022/08/09 06:26:16;;;;;;;;;;;;;;;29.64;57.00;155118.56;1626038;86;21275;-58
2022/08/09 06:28:42;;;;;;;;;;;;;;;29.75;54.97;155144.86;1622819;86;20208;-77
2022/08/09 06:31:09;;;;;;;;;;;;;;;29.90;54.30;155184.23;1627635;86;20439;-75
2022/08/09 06:33:36;;;;;;;;;;;;;;;30.07;52.16;155226.33;1625952;86;20187;-76
2022/08/09 06:36:04;;;;;;;;;;;;;;;30.11;51.23;155236.83;1628706;86;20159;-76
2022/08/09 06:38:30;;;;;;;;;;;;;;;30.18;50.84;155253.92;1626802;85;21277;-76
2022/08/09 06:40:57;;;;;;;;;;;;;;;30.22;52.15;155265.75;1622571;86;20534;-76
2022/08/09 06:43:24;;;;;;;;;;;;;;;30.32;54.54;155289.38;1624873;86;20651;-77
2022/08/09 06:45:51;;;;;;;;;;;;;;;30.39;54.62;155307.75;1622634;86;20189;-76
2022/08/09 06:48:18;;;;;;;;;;;;;;;30.28;54.34;155281.50;1629489;86;20227;-59
2022/08/09 06:50:45;;;;;;;;;;;;;;;30.26;54.74;155276.25;1631228;86;21240;-59
2022/08/09 06:53:12;;;;;;;;;;;;;;;30.35;54.60;155298.59;1623881;86;20208;-59
2022/08/09 06:55:39;;;;;;;;;;;;;;;30.43;53.22;155319.59;1625730;86;20189;-59
2022/08/09 06:58:06;;;;;;;;;;;;;;;30.53;53.67;155344.56;1632408;86;20443;-77
2022/08/09 07:00:34;;;;;;;;;;;;;;;30.72;53.84;155391.94;1605922;87;20607;-77
2022/08/09 07:03:02;;;;;;;;;;;;;;;30.87;52.95;155431.38;1660522;85;21119;-77
2022/08/09 07:05:28;;;;;;;;;;;;;;;30.97;51.34;155456.34;1653125;85;20181;-77
2022/08/09 07:07:55;;;;;;;;;;;;;;;31.05;50.10;155476.02;1662260;84;20575;-77
2022/08/09 07:10:22;;;;;;;;;;;;;;;31.04;49.56;155473.39;1662171;85;20171;-77
2022/08/09 07:12:49;;;;;;;;;;;;;;;30.92;49.50;155441.88;1660279;85;20181;-76
2022/08/09 07:15:16;;;;;;;;;;;;;;;30.82;49.86;155416.89;1661620;85;21242;-76
2022/08/09 07:17:43;;;;;;;;;;;;;;;30.83;50.42;155420.81;1655936;85;20415;-75
2022/08/09 07:20:10;;;;;;;;;;;;;;;30.97;49.32;155455.00;1652387;84;20215;-76
2022/08/09 07:22:37;;;;;;;;;;;;;;;30.96;48.72;155452.38;1656764;85;20484;-58
2022/08/09 07:25:04;;;;;;;;;;;;;;;30.96;48.20;155452.38;1656044;84;20649;-58
2022/08/09 07:27:31;;;;;;;;;;;;;;;30.96;48.80;155452.38;1648394;86;21097;-59
2022/08/09 07:29:58;;;;;;;;;;;;;;;31.04;49.20;155473.39;1651896;84;20418;-58
2022/08/09 07:32:26;;;;;;;;;;;;;;;31.11;48.27;155491.81;1650942;85;20235;-59
2022/08/09 07:34:52;;;;;;;;;;;;;;;31.14;47.66;155499.69;1651946;86;20096;-59
2022/08/09 07:37:19;;;;;;;;;;;;;;;31.19;47.94;155510.20;1652028;85;20203;-59
2022/08/09 07:39:46;;;;;;;;;;;;;;;31.35;49.69;155552.33;1659328;85;21217;-59
2022/08/09 07:42:13;;;;;;;;;;;;;;;31.59;50.95;155612.80;1649830;85;20190;-59
2022/08/09 07:44:39;;;;;;;;;;;;;;;31.76;50.42;155654.88;1659333;85;20200;-59
2022/08/09 07:47:06;;;;;;;;;;;;;;;31.88;48.82;155686.45;1655702;85;20535;-59
2022/08/09 07:49:33;;;;;;;;;;;;;;;31.95;48.59;155704.89;1657126;85;20183;-59
2022/08/09 07:52:00;;;;;;;;;;;;;;;32.04;47.58;155725.92;1649167;86;21263;-59
2022/08/09 07:54:29;;;;;;;;;;;;;;;32.10;45.59;155743.03;1652931;85;21041;-59
2022/08/09 07:56:55;;;;;;;;;;;;;;;31.99;45.31;155715.41;1653089;85;20139;-59
2022/08/09 07:59:22;;;;;;;;;;;;;;;31.93;45.69;155699.59;1650984;86;20821;-59
2022/08/09 08:01:49;;;;;;;;;;;;;;;31.91;45.56;155694.34;1654029;85;20403;-60
2022/08/09 08:04:16;;;;;;;;;;;;;;;31.97;45.72;155710.16;1654868;85;21099;-59
2022/08/09 08:06:43;;;;;;;;;;;;;;;31.98;45.37;155711.44;1665100;84;20168;-59
2022/08/09 08:09:09;;;;;;;;;;;;;;;31.97;45.00;155708.81;1659181;85;20217;-59
2022/08/09 08:11:37;;;;;;;;;;;;;;;32.08;45.07;155736.42;1660894;84;20361;-59
2022/08/09 08:14:04;;;;;;;;;;;;;;;32.09;44.98;155739.06;1665297;85;20974;-59
2022/08/09 08:16:31;;;;;;;;;;;;;;;32.06;45.27;155732.52;1662570;84;21574;-59
2022/08/09 08:18:59;;;;;;;;;;;;;;;32.04;45.14;155725.92;1660954;84;37383;-59
2022/08/09 08:21:25;;;;;;;;;;;;;;;32.00;45.35;155718.03;1659041;85;20470;-59
2022/08/09 08:23:52;;;;;;;;;;;;;;;31.95;45.14;155704.89;1658136;86;21686;-59
2022/08/09 08:26:19;;;;;;;;;;;;;;;32.03;44.42;155723.28;1658114;84;20224;-59
2022/08/09 08:28:46;;;;;;;;;;;;;;;32.18;43.43;155762.75;1659981;85;21146;-60
2022/08/09 08:31:13;;;;;;;;;;;;;;;32.43;43.72;155825.92;1661023;85;20211;-60
2022/08/09 08:33:40;;;;;;;;;;;;;;;32.68;43.45;155889.05;1662558;85;20184;-59
2022/08/09 08:36:07;;;;;;;;;;;;;;;32.78;44.43;155915.33;1657196;84;20231;-59
2022/08/09 08:38:34;;;;;;;;;;;;;;;32.89;44.28;155943.02;1658634;84;20517;-59
2022/08/09 08:41:00;;;;;;;;;;;;;;;33.08;44.74;155991.72;1661389;84;21096;-59
2022/08/09 08:43:27;;;;;;;;;;;;;;;33.34;43.05;156057.50;1660009;84;20288;-60
2022/08/09 08:45:56;;;;;;;;;;;;;;;33.47;42.64;156090.44;1660415;84;20350;-60
2022/08/09 08:48:23;;;;;;;;;;;;;;;33.40;43.41;156073.27;1662863;84;20458;-59
2022/08/09 08:50:49;;;;;;;;;;;;;;;33.23;43.99;156028.53;1662344;85;20188;-60
2022/08/09 08:53:16;;;;;;;;;;;;;;;33.05;44.45;155983.83;1660553;84;21208;-60
2022/08/09 08:55:43;;;;;;;;;;;;;;;32.94;44.78;155956.20;1658619;84;20164;-59
2022/08/09 08:58:09;;;;;;;;;;;;;;;32.83;44.86;155928.53;1659060;84;20456;-60
2022/08/09 09:00:37;;;;;;;;;;;;;;;32.80;45.25;155919.30;1660397;84;20484;-59
2022/08/09 09:03:04;;;;;;;;;;;;;;;32.77;45.20;155911.42;1660573;85;20135;-59
2022/08/09 09:05:31;;;;;;;;;;;;;;;32.81;45.63;155923.22;1654111;85;21086;-59
2022/08/09 09:07:58;;;;;;;;;;;;;;;32.78;45.35;155915.33;1656079;85;20432;-60
2022/08/09 09:10:25;;;;;;;;;;;;;;;32.74;45.71;155904.81;1652695;85;20189;-61
2022/08/09 09:12:52;;;;;;;;;;;;;;;32.69;46.02;155891.67;1646987;85;20750;-60
2022/08/09 09:15:19;;;;;;;;;;;;;;;32.69;46.25;155892.97;1650530;85;20215;-60
2022/08/09 09:17:45;;;;;;;;;;;;;;;32.77;46.65;155912.70;1648227;85;21138;-60
2022/08/09 09:20:13;;;;;;;;;;;;;;;33.04;46.08;155979.86;1656472;85;20387;-60
2022/08/09 09:22:55;;;;;;;;;;;;;;;33.32;45.58;156052.23;1652778;85;20163;-61
2022/08/09 09:25:42;;;;;;;;;;;;;;;33.47;44.96;156089.09;1649209;85;20520;-60
2022/08/09 09:28:10;;;;;;;;;;;;;;;33.36;44.58;156062.75;1653876;84;20460;-61
2022/08/09 09:30:56;;;;;;;;;;;;;;;33.14;44.30;156007.48;1651285;85;21239;-60
2022/08/09 09:33:35;;;;;;;;;;;;;;;32.96;43.42;155960.12;1649940;85;20187;-60
2022/08/09 09:36:04;;;;;;;;;;;;;;;32.86;43.52;155936.41;1655871;85;20190;-60
2022/08/09 09:38:49;;;;;;;;;;;;;;;32.93;43.65;155952.23;1648677;85;20197;-59
2022/08/09 09:41:26;;;;;;;;;;;;;;;33.10;43.33;155996.97;1654089;85;20194;-60
2022/08/09 09:43:54;;;;;;;;;;;;;;;33.24;43.17;156032.50;1658033;85;21467;-60
2022/08/09 09:46:32;;;;;;;;;;;;;;;33.42;42.75;156077.23;1652433;85;20531;-61
2022/08/09 09:49:06;;;;;;;;;;;;;;;33.58;41.85;156118.06;1650691;85;20135;-61
2022/08/09 09:51:34;;;;;;;;;;;;;;;33.62;41.67;156128.59;1630865;85;20224;-60
2022/08/09 09:54:06;;;;;;;;;;;;;;;33.61;41.69;156125.95;1636955;86;20233;-61
2022/08/09 09:56:34;;;;;;;;;;;;;;;33.67;41.07;156140.44;1657446;85;21136;-61
2022/08/09 09:59:01;;;;;;;;;;;;;;;33.68;41.03;156144.37;1656434;85;20332;-61
2022/08/09 10:01:28;;;;;;;;;;;;;;;33.71;40.39;156152.31;1652767;85;20200;-61
2022/08/09 10:03:55;;;;;;;;;;;;;;;33.64;40.36;156132.56;1654545;84;20263;-61
2022/08/09 10:06:22;;;;;;;;;;;;;;;33.54;40.39;156107.55;1659892;84;20448;-61
2022/08/09 10:08:49;;;;;;;;;;;;;;;33.41;40.58;156074.61;1660121;84;22068;-60
2022/08/09 10:11:24;;;;;;;;;;;;;;;33.34;40.33;156057.50;1653916;85;20247;-60
2022/08/09 10:13:54;;;;;;;;;;;;;;;33.35;40.28;156060.13;1655887;85;20141;-60
2022/08/09 10:16:29;;;;;;;;;;;;;;;33.37;39.70;156065.38;1652653;85;20213;-59
2022/08/09 10:18:59;;;;;;;;;;;;;;;33.39;39.51;156070.64;1652602;85;20213;-60
2022/08/09 10:21:25;;;;;;;;;;;;;;;33.47;38.87;156089.09;1654227;85;21133;-60
2022/08/09 10:23:52;;;;;;;;;;;;;;;33.57;38.58;156115.44;1654801;85;20205;-60
2022/08/09 10:26:20;;;;;;;;;;;;;;;33.67;37.80;156141.73;1652709;85;20197;-60
2022/08/09 10:28:47;;;;;;;;;;;;;;;33.85;36.96;156186.50;1658242;85;20896;-60
2022/08/09 10:31:14;;;;;;;;;;;;;;;33.92;36.63;156204.91;1658806;85;20228;-60
2022/08/09 10:33:41;;;;;;;;;;;;;;;33.92;36.22;156203.61;1651537;86;21256;-60
2022/08/09 10:36:09;;;;;;;;;;;;;;;33.82;35.63;156178.59;1650006;86;20470;-73
2022/08/09 10:38:36;;;;;;;;;;;;;;;33.70;35.86;156149.62;1651480;86;20454;-73
2022/08/09 10:41:03;;;;;;;;;;;;;;;33.71;35.10;156152.31;1650477;85;20203;-73
2022/08/09 10:43:30;;;;;;;;;;;;;;;33.73;34.85;156156.22;1649295;86;20208;-73
2022/08/09 10:46:01;;;;;;;;;;;;;;;33.81;34.55;156175.97;1651056;85;21246;-72
2022/08/09 10:48:34;;;;;;;;;;;;;;;33.96;34.08;156214.19;1650852;86;20578;-74
2022/08/09 10:51:16;;;;;;;;;;;;;;;34.12;33.43;156256.31;1649801;86;20155;-74
2022/08/09 10:54:04;;;;;;;;;;;;;;;34.20;33.12;156276.06;1638814;85;20367;-75
2022/08/09 10:56:36;;;;;;;;;;;;;;;34.20;33.13;156276.06;1619887;86;20213;-75
2022/08/09 10:59:23;;;;;;;;;;;;;;;34.11;33.17;156252.34;1614395;87;21226;-74
2022/08/09 11:01:51;;;;;;;;;;;;;;;34.02;33.49;156228.67;1635262;86;20761;-73
2022/08/09 11:04:20;;;;;;;;;;;;;;;34.10;33.46;156251.05;1641273;86;20219;-73
2022/08/09 11:07:01;;;;;;;;;;;;;;;34.23;33.29;156283.95;1626406;86;20539;-73
2022/08/09 11:09:43;;;;;;;;;;;;;;;34.38;32.77;156322.13;1631106;87;20232;-75
2022/08/09 11:12:18;;;;;;;;;;;;;;;34.46;32.22;156341.87;1611314;86;21870;-73
2022/08/09 11:14:49;;;;;;;;;;;;;;;34.48;32.06;156347.14;1613140;86;21225;-74
2022/08/09 11:17:23;;;;;;;;;;;;;;;34.53;31.74;156360.34;1605174;87;20499;-75
2022/08/09 11:19:56;;;;;;;;;;;;;;;34.41;31.98;156328.72;1618599;87;20636;-75
2022/08/09 11:22:20;;;;;;;;;;;;;;;34.23;32.02;156283.95;1626658;86;20213;-74
2022/08/09 11:25:03;;;;;;;;;;;;;;;34.11;32.07;156253.69;1609185;87;21000;-74
2022/08/09 11:27:31;;;;;;;;;;;;;;;34.14;32.34;156260.23;1606962;87;20679;-74
2022/08/09 11:29:58;;;;;;;;;;;;;;;34.27;32.25;156294.47;1608493;88;20188;-74
2022/08/09 11:32:44;;;;;;;;;;;;;;;34.44;31.83;156336.63;1610402;87;20242;-74
2022/08/09 11:35:26;;;;;;;;;;;;;;;34.62;31.88;156381.44;1586358;88;20248;-73
2022/08/09 11:37:57;;;;;;;;;;;;;;;34.76;30.83;156418.27;1609057;88;21239;-75
2022/08/09 11:40:27;;;;;;;;;;;;;;;34.65;30.63;156389.33;1606346;87;20192;-75
2022/08/09 11:42:55;;;;;;;;;;;;;;;34.50;30.84;156352.45;1612080;86;20188;-73
2022/08/09 11:45:37;;;;;;;;;;;;;;;34.40;30.69;156327.39;1611154;86;20529;-74
2022/08/09 11:48:05;;;;;;;;;;;;;;;34.33;30.90;156307.63;1607850;87;20179;-74
2022/08/09 11:50:32;;;;;;;;;;;;;;;34.42;30.99;156331.36;1606196;88;21100;-74
2022/08/09 11:53:03;;;;;;;;;;;;;;;34.44;30.89;156336.63;1567337;88;20222;-74
2022/08/09 11:55:34;;;;;;;;;;;;;;;34.53;30.86;156360.34;1605165;87;20201;-75
2022/08/09 11:58:03;;;;;;;;;;;;;;;34.62;30.62;156381.44;1610066;86;20185;-73
2022/08/09 12:00:31;;;;;;;;;;;;;;;34.68;30.18;156398.52;1606915;87;20496;-74
2022/08/09 12:02:59;;;;;;;;;;;;;;;34.67;29.97;156394.59;1611300;87;22207;-74
2022/08/09 12:05:32;;;;;;;;;;;;;;;34.60;31.30;156376.13;1609587;87;20216;-74
2022/08/09 12:07:59;;;;;;;;;;;;;;;34.43;31.69;156333.98;1646840;86;20483;-73
2022/08/09 12:10:26;;;;;;;;;;;;;;;34.27;30.53;156294.47;1647607;86;20138;-73
2022/08/09 12:12:53;;;;;;;;;;;;;;;33.93;30.47;156207.53;1617576;87;20250;-74
2022/08/09 12:15:24;;;;;;;;;;;;;;;33.58;31.29;156119.36;1593894;89;21251;-73
2022/08/09 12:17:51;;;;;;;;;;;;;;;33.45;31.77;156085.17;1649387;85;20453;-74
2022/08/09 12:20:20;;;;;;;;;;;;;;;33.46;31.90;156086.47;1648153;86;20201;-73
2022/08/09 12:22:47;;;;;;;;;;;;;;;33.52;31.51;156102.28;1651740;85;20238;-73
2022/08/09 12:25:16;;;;;;;;;;;;;;;33.45;31.03;156083.84;1646294;86;20650;-73
2022/08/09 12:27:43;;;;;;;;;;;;;;;33.36;30.71;156062.75;1648094;86;21138;-73
2022/08/09 12:30:10;;;;;;;;;;;;;;;33.21;31.30;156023.27;1645163;85;20568;-74
2022/08/09 12:32:36;;;;;;;;;;;;;;;33.11;30.88;155999.61;1646136;86;20625;-60
2022/08/09 12:35:04;;;;;;;;;;;;;;;33.09;30.85;155993.00;1644581;85;20774;-60
2022/08/09 12:37:36;;;;;;;;;;;;;;;33.12;31.13;156002.23;1646826;85;20508;-60
2022/08/09 12:40:07;;;;;;;;;;;;;;;33.09;31.60;155994.34;1647254;85;21163;-60
2022/08/09 12:42:35;;;;;;;;;;;;;;;33.05;31.99;155982.50;1654391;85;20996;-59